Time;durP1;ratioP1;P1;durP2;ratioP2;P2;SDS_P1;SDS_P2;PMS_P1;PMS_P2;Temp;Humidity;BMP_temperature;BMP_pressure;BME280_temperature;BME280_humidity;BME280_pressure;Samples;Min_cycle;Max_cycle;Signal;HPM_P1;HPM_P2
2022/04/24 00:01:03;;;;;;;9.57;4.03;;;;;;;7.59;71.59;99338.59;5056527;28;20561;-44
2022/04/24 00:03:30;;;;;;;12.75;4.75;;;;;;;7.62;72.13;99340.28;5049556;28;20094;-46
2022/04/24 00:05:57;;;;;;;14.30;4.97;;;;;;;7.61;71.54;99343.75;5060918;28;20044;-40
2022/04/24 00:08:23;;;;;;;12.43;5.15;;;;;;;7.59;71.24;99336.00;5060072;28;20542;-45
2022/04/24 00:10:50;;;;;;;18.73;5.78;;;;;;;7.61;70.75;99338.59;5058967;28;20109;-47
2022/04/24 00:13:17;;;;;;;26.25;5.57;;;;;;;7.62;71.57;99335.13;5049265;28;20106;-47
2022/04/24 00:15:43;;;;;;;11.77;4.70;;;;;;;7.59;71.70;99340.28;5034843;28;20049;-52
2022/04/24 00:18:10;;;;;;;14.40;5.25;;;;;;;7.59;71.30;99341.16;5051725;28;20534;-44
2022/04/24 00:20:39;;;;;;;17.67;6.22;;;;;;;7.62;71.53;99340.28;5051800;28;20055;-44
2022/04/24 00:23:07;;;;;;;15.45;5.03;;;;;;;7.58;71.26;99343.75;5048533;28;20151;-46
2022/04/24 00:25:35;;;;;;;10.30;4.25;;;;;;;7.54;72.37;99352.34;5049087;28;20044;-49
2022/04/24 00:28:03;;;;;;;15.85;4.63;;;;;;;7.54;72.12;99347.19;5053462;28;20099;-50
2022/04/24 00:30:48;;;;;;;14.90;4.65;;;;;;;7.51;72.16;99347.19;5046069;28;20459;-51
2022/04/24 00:33:17;;;;;;;14.73;5.93;;;;;;;7.52;72.15;99343.75;5047936;28;20077;-42
2022/04/24 00:35:45;;;;;;;15.63;4.88;;;;;;;7.51;72.83;99348.06;5054970;28;20053;-48
2022/04/24 00:38:12;;;;;;;12.30;5.38;;;;;;;7.52;72.04;99351.47;5051756;28;20044;-49
2022/04/24 00:40:39;;;;;;;13.95;5.43;;;;;;;7.49;72.86;99347.19;5058826;28;20050;-52
2022/04/24 00:43:05;;;;;;;19.98;6.65;;;;;;;7.51;71.54;99349.75;5054562;28;20060;-41
2022/04/24 00:45:32;;;;;;;15.88;5.28;;;;;;;7.50;73.14;99354.03;5044317;28;20098;-50
2022/04/24 00:47:59;;;;;;;17.40;5.35;;;;;;;7.47;72.42;99348.91;5048744;28;20134;-44
2022/04/24 00:50:25;;;;;;;15.88;5.10;;;;;;;7.49;71.96;99349.75;5052829;28;20049;-48
2022/04/24 00:52:52;;;;;;;19.58;5.70;;;;;;;7.47;71.73;99351.50;5052023;28;20434;-50
2022/04/24 00:55:23;;;;;;;18.10;5.70;;;;;;;7.46;72.29;99348.03;5049728;28;20115;-48
2022/04/24 00:57:50;;;;;;;18.05;5.20;;;;;;;7.43;73.21;99350.63;5052783;28;20068;-48
2022/04/24 01:00:17;;;;;;;13.38;4.70;;;;;;;7.41;73.30;99349.78;5051277;28;20511;-42
2022/04/24 01:02:43;;;;;;;14.35;4.85;;;;;;;7.42;73.13;99348.91;5050557;28;20045;-53
2022/04/24 01:05:10;;;;;;;16.13;4.82;;;;;;;7.40;72.02;99348.03;5045939;28;20053;-47
2022/04/24 01:07:37;;;;;;;15.02;4.95;;;;;;;7.39;72.47;99351.50;5048866;28;20079;-48
2022/04/24 01:10:04;;;;;;;18.48;5.57;;;;;;;7.36;72.26;99356.63;5050061;28;20531;-43
2022/04/24 01:12:31;;;;;;;16.00;4.97;;;;;;;7.35;73.43;99349.78;5050305;28;20566;-48
2022/04/24 01:14:57;;;;;;;16.83;4.80;;;;;;;7.33;71.88;99360.06;5055109;28;20076;-43
2022/04/24 01:17:24;;;;;;;14.25;4.22;;;;;;;7.34;73.44;99355.78;5049479;28;20049;-46
2022/04/24 01:19:51;;;;;;;17.13;5.18;;;;;;;7.33;73.18;99359.25;5049578;28;20045;-49
2022/04/24 01:22:18;;;;;;;12.52;4.35;;;;;;;7.30;71.91;99356.66;5050619;28;20129;-47
2022/04/24 01:24:44;;;;;;;13.68;4.35;;;;;;;7.28;73.52;99360.94;5042863;28;20091;-49
2022/04/24 01:27:11;;;;;;;14.60;4.88;;;;;;;7.29;72.36;99362.66;5045839;28;20106;-47
2022/04/24 01:29:38;;;;;;;13.10;4.65;;;;;;;7.24;73.23;99352.38;5055148;28;20044;-48
2022/04/24 01:32:05;;;;;;;16.38;4.43;;;;;;;7.24;73.74;99351.50;5055067;28;20057;-42
2022/04/24 01:34:32;;;;;;;15.02;4.72;;;;;;;7.27;73.44;99351.50;5052849;28;20049;-47
2022/04/24 01:36:58;;;;;;;15.75;3.80;;;;;;;7.25;72.94;99355.78;5046856;28;20083;-45
2022/04/24 01:39:25;;;;;;;18.02;6.07;;;;;;;7.25;72.42;99360.94;5045804;28;20083;-42
2022/04/24 01:41:52;;;;;;;11.35;4.15;;;;;;;7.23;72.24;99360.94;5050841;28;20075;-50
2022/04/24 01:44:18;;;;;;;14.05;5.28;;;;;;;7.22;72.90;99360.97;5061085;28;20045;-41
2022/04/24 01:46:45;;;;;;;17.58;4.15;;;;;;;7.17;74.58;99364.38;5049998;28;20552;-49
2022/04/24 01:49:11;;;;;;;15.02;4.70;;;;;;;7.20;72.38;99359.22;5050191;28;20475;-46
2022/04/24 01:51:38;;;;;;;14.95;4.97;;;;;;;7.18;72.76;99363.53;5051942;28;20126;-44
2022/04/24 01:54:05;;;;;;;17.48;4.57;;;;;;;7.15;73.01;99355.78;5052705;28;20048;-49
2022/04/24 01:56:31;;;;;;;26.40;5.70;;;;;;;7.15;72.28;99363.53;5052031;28;20126;-46
2022/04/24 01:58:58;;;;;;;14.70;4.82;;;;;;;7.12;73.14;99360.94;5056528;28;20045;-45
2022/04/24 02:01:25;;;;;;;16.55;4.85;;;;;;;7.08;73.48;99359.22;5052047;28;20545;-41
2022/04/24 02:03:52;;;;;;;18.33;4.85;;;;;;;7.11;73.15;99359.22;5055367;28;20484;-43
2022/04/24 02:06:18;;;;;;;17.92;5.40;;;;;;;7.11;74.14;99355.78;5050732;28;20087;-50
2022/04/24 02:08:45;;;;;;;12.95;4.85;;;;;;;7.07;73.51;99349.78;5047846;28;20446;-47
2022/04/24 02:11:11;;;;;;;15.13;4.47;;;;;;;7.06;74.01;99353.22;5056493;28;20052;-48
2022/04/24 02:13:38;;;;;;;12.63;4.63;;;;;;;7.09;73.79;99355.78;5056536;28;20095;-49
2022/04/24 02:16:05;;;;;;;13.45;4.57;;;;;;;7.08;73.25;99348.91;5051987;28;20102;-47
2022/04/24 02:18:31;;;;;;;17.80;5.43;;;;;;;7.07;74.28;99347.22;5056640;28;20561;-53
2022/04/24 02:20:58;;;;;;;14.63;4.00;;;;;;;7.05;75.20;99348.91;5066373;28;20480;-45
2022/04/24 02:23:24;;;;;;;10.50;4.03;;;;;;;7.05;74.77;99346.34;5051066;28;20500;-46
2022/04/24 02:25:51;;;;;;;18.63;4.00;;;;;;;7.06;75.00;99355.81;5052825;28;20052;-51
2022/04/24 02:28:18;;;;;;;11.57;4.05;;;;;;;7.06;73.92;99345.50;5054624;28;20094;-50
2022/04/24 02:30:44;;;;;;;12.43;4.15;;;;;;;7.08;74.53;99354.06;5053355;28;20789;-45
2022/04/24 02:33:11;;;;;;;17.98;4.65;;;;;;;7.09;73.67;99355.78;5050407;28;20049;-45
2022/04/24 02:35:38;;;;;;;20.98;4.60;;;;;;;7.04;74.44;99347.22;5058244;28;20071;-47
2022/04/24 02:38:05;;;;;;;15.50;3.90;;;;;;;7.07;74.64;99357.50;5052912;28;20049;-45
2022/04/24 02:40:31;;;;;;;16.52;4.75;;;;;;;7.06;74.03;99358.38;5054871;28;20122;-52
2022/04/24 02:42:58;;;;;;;12.82;3.83;;;;;;;7.08;74.87;99354.06;5061163;28;20122;-42
2022/04/24 02:45:24;;;;;;;16.73;3.83;;;;;;;7.07;74.75;99357.50;5055866;28;20106;-44
2022/04/24 02:47:51;;;;;;;13.75;3.25;;;;;;;7.07;74.39;99367.81;5052669;28;20060;-47
2022/04/24 02:50:18;;;;;;;14.65;4.05;;;;;;;7.08;74.28;99369.53;5061587;28;20442;-50
2022/04/24 02:55:22;;;;;;;19.92;6.00;;;;;;;7.07;73.83;99365.25;5082520;27;20129;-48
2022/04/24 02:57:49;;;;;;;17.52;4.90;;;;;;;7.06;73.93;99371.25;5035834;28;20099;-47
2022/04/24 03:00:19;;;;;;;17.23;5.05;;;;;;;7.06;74.73;99371.25;5049557;28;20524;-41
2022/04/24 03:02:47;;;;;;;17.15;5.15;;;;;;;7.04;74.99;99372.97;5071952;28;20045;-42
2022/04/24 03:05:16;;;;;;;19.17;5.70;;;;;;;7.03;74.26;99376.41;5071802;28;20111;-47
2022/04/24 03:07:43;;;;;;;20.77;4.80;;;;;;;7.04;73.15;99368.69;5068829;28;20801;-43
2022/04/24 03:10:12;;;;;;;23.85;5.68;;;;;;;7.02;73.62;99374.66;5066559;28;20053;-43
2022/04/24 03:12:40;;;;;;;15.82;5.47;;;;;;;6.99;74.89;99379.81;5050992;28;20110;-44
2022/04/24 03:15:09;;;;;;;21.92;4.93;;;;;;;6.98;74.89;99376.38;5055034;28;20537;-42
2022/04/24 03:17:36;;;;;;;15.65;5.10;;;;;;;6.97;74.87;99374.69;5070606;28;20549;-50
2022/04/24 03:20:06;;;;;;;14.23;4.63;;;;;;;6.93;74.21;99372.94;5072211;28;20098;-47
2022/04/24 03:22:34;;;;;;;19.88;5.30;;;;;;;6.94;74.57;99374.66;5074551;28;20090;-44
2022/04/24 03:25:01;;;;;;;15.25;5.20;;;;;;;6.94;73.64;99385.84;5029732;28;20087;-49
2022/04/24 03:27:28;;;;;;;16.80;5.03;;;;;;;6.93;74.24;99371.22;5050370;28;20056;-44
2022/04/24 03:29:55;;;;;;;17.98;5.55;;;;;;;6.92;74.73;99382.38;5074212;28;20122;-49
2022/04/24 03:32:21;;;;;;;14.23;5.00;;;;;;;6.88;74.43;99370.38;5064580;28;20044;-46
2022/04/24 03:34:49;;;;;;;17.92;5.35;;;;;;;6.89;74.25;99369.50;5066133;28;20052;-48
2022/04/24 03:37:17;;;;;;;14.82;4.70;;;;;;;6.90;73.97;99373.81;5071644;28;20049;-41
2022/04/24 03:39:44;;;;;;;13.35;4.78;;;;;;;6.86;75.05;99377.22;5055731;28;20051;-43
2022/04/24 03:42:10;;;;;;;20.33;5.32;;;;;;;6.87;74.35;99376.38;5072615;28;20052;-48
2022/04/24 03:44:37;;;;;;;11.10;4.28;;;;;;;6.85;73.68;99380.66;5066071;28;20102;-48
2022/04/24 03:47:05;;;;;;;18.08;5.93;;;;;;;6.84;75.55;99376.38;5069730;28;20515;-42
2022/04/24 03:49:33;;;;;;;15.30;4.57;;;;;;;6.84;74.15;99381.50;5065118;28;20061;-53
2022/04/24 03:51:59;;;;;;;18.85;5.53;;;;;;;6.83;74.42;99384.97;5067128;28;20048;-51
2022/04/24 03:54:26;;;;;;;17.88;4.72;;;;;;;6.82;74.16;99378.06;5074494;28;20101;-48
2022/04/24 03:56:53;;;;;;;17.83;5.22;;;;;;;6.79;75.08;99383.22;5068670;28;20056;-46
2022/04/24 03:59:19;;;;;;;15.07;4.68;;;;;;;6.80;75.28;99384.94;5068156;28;20499;-51
2022/04/24 04:01:46;;;;;;;16.10;5.22;;;;;;;6.80;74.28;99382.38;5070183;28;20139;-46
2022/04/24 04:04:13;;;;;;;10.00;4.43;;;;;;;6.78;73.90;99387.50;5063069;28;20495;-52
2022/04/24 04:06:40;;;;;;;13.48;3.33;;;;;;;6.79;74.41;99388.38;5054469;28;20446;-45
2022/04/24 04:09:06;;;;;;;16.05;5.10;;;;;;;6.76;75.34;99388.38;5063800;28;20118;-51
2022/04/24 04:11:33;;;;;;;13.38;3.95;;;;;;;6.78;74.10;99386.63;5053426;28;20048;-51
2022/04/24 04:13:59;;;;;;;10.95;4.95;;;;;;;6.75;75.09;99391.81;5057718;28;20045;-44
2022/04/24 04:16:26;;;;;;;16.70;4.65;;;;;;;6.77;74.16;99396.09;5049810;28;20075;-44
2022/04/24 04:18:52;;;;;;;15.43;4.18;;;;;;;6.77;74.57;99387.50;5060738;28;20052;-54
2022/04/24 04:21:19;;;;;;;16.77;5.15;;;;;;;6.74;75.12;99396.09;5062130;28;20041;-45
2022/04/24 04:23:46;;;;;;;9.77;4.22;;;;;;;6.71;74.57;99401.22;5056666;28;20546;-42
2022/04/24 04:26:17;;;;;;;16.17;4.65;;;;;;;6.73;75.50;99398.66;5038818;28;20048;-46
2022/04/24 04:28:45;;;;;;;15.98;4.97;;;;;;;6.71;74.22;99400.34;5062021;28;20048;-47
2022/04/24 04:31:13;;;;;;;18.30;4.60;;;;;;;6.71;74.07;99408.06;5038989;28;20053;-47
2022/04/24 04:33:41;;;;;;;13.25;3.97;;;;;;;6.71;73.94;99405.50;5057460;28;20080;-43
2022/04/24 04:36:08;;;;;;;19.88;5.45;;;;;;;6.71;74.48;99405.50;5056002;28;20052;-44
2022/04/24 04:38:35;;;;;;;17.05;4.30;;;;;;;6.66;74.86;99408.06;5015678;28;20099;-43
2022/04/24 04:41:03;;;;;;;16.27;3.83;;;;;;;6.67;74.47;99404.63;5062474;28;20076;-47
2022/04/24 04:43:30;;;;;;;23.55;5.25;;;;;;;6.65;74.33;99404.63;5044007;28;20045;-48
2022/04/24 04:45:57;;;;;;;16.33;4.47;;;;;;;6.63;75.26;99408.94;5051644;28;20045;-43
2022/04/24 04:48:25;;;;;;;12.73;4.65;;;;;;;6.63;74.24;99410.63;5052531;28;20068;-48
2022/04/24 04:50:53;;;;;;;9.18;3.92;;;;;;;6.64;74.17;99410.63;5060945;28;20353;-46
2022/04/24 04:53:19;;;;;;;10.70;4.20;;;;;;;6.64;75.16;99420.06;5036439;28;20057;-44
2022/04/24 04:55:46;;;;;;;13.60;4.18;;;;;;;6.59;75.81;99417.50;5057682;28;20537;-45
2022/04/24 04:58:13;;;;;;;15.50;4.38;;;;;;;6.62;75.55;99412.34;5055129;28;20049;-46
2022/04/24 05:00:39;;;;;;;20.25;4.85;;;;;;;6.62;75.21;99422.63;5053170;28;20123;-51
2022/04/24 05:03:07;;;;;;;14.00;4.25;;;;;;;6.62;73.94;99422.63;5061884;28;20154;-44
2022/04/24 05:05:33;;;;;;;14.75;5.45;;;;;;;6.61;74.52;99415.78;5051517;28;20037;-45
2022/04/24 05:08:00;;;;;;;13.02;4.50;;;;;;;6.60;74.44;99429.50;5059500;28;20094;-47
2022/04/24 05:10:27;;;;;;;16.13;5.18;;;;;;;6.62;75.49;99426.94;5034726;28;20045;-43
2022/04/24 05:12:53;;;;;;;13.32;3.75;;;;;;;6.59;74.28;99430.38;5054890;28;20834;-51
2022/04/24 05:15:21;;;;;;;14.98;4.47;;;;;;;6.62;74.86;99438.06;5055846;28;20101;-52
2022/04/24 05:17:48;;;;;;;12.27;4.57;;;;;;;6.63;75.12;99439.81;5051534;28;20102;-44
2022/04/24 05:20:14;;;;;;;17.65;4.80;;;;;;;6.64;74.72;99440.66;5037565;28;20049;-45
2022/04/24 05:22:41;;;;;;;15.85;4.50;;;;;;;6.64;75.17;99446.66;5054788;28;20125;-43
2022/04/24 05:25:09;;;;;;;12.18;4.20;;;;;;;6.63;74.08;99450.09;5038251;28;20101;-46
2022/04/24 05:27:36;;;;;;;16.80;4.45;;;;;;;6.68;74.88;99447.53;5031250;28;20112;-51
2022/04/24 05:30:07;;;;;;;19.95;5.10;;;;;;;6.69;75.08;99450.09;5051438;28;20056;-48
2022/04/24 05:32:47;;;;;;;13.45;4.28;;;;;;;6.67;75.02;99454.41;5048110;28;20041;-53
2022/04/24 05:35:13;;;;;;;8.85;3.85;;;;;;;6.76;74.40;99460.44;5050298;28;20044;-42
2022/04/24 05:37:40;;;;;;;16.02;4.10;;;;;;;6.80;74.29;99451.88;5056078;28;20044;-40
2022/04/24 05:40:07;;;;;;;18.40;4.80;;;;;;;6.84;73.47;99457.88;5051146;28;20105;-44
2022/04/24 05:42:54;;;;;;;11.35;2.90;;;;;;;6.82;74.45;99451.00;5051543;28;20755;-45
2022/04/24 05:45:22;;;;;;;13.77;4.43;;;;;;;6.84;75.60;99469.03;5030526;28;20044;-48
2022/04/24 05:47:49;;;;;;;11.10;3.97;;;;;;;6.88;75.06;99460.47;5047720;28;20044;-50
2022/04/24 05:50:17;;;;;;;11.90;5.45;;;;;;;6.90;73.80;99463.91;5032182;28;20499;-42
2022/04/24 05:52:44;;;;;;;16.27;4.00;;;;;;;6.94;74.64;99470.78;5050404;28;20384;-48
2022/04/24 05:55:11;;;;;;;12.57;4.22;;;;;;;6.98;73.78;99476.81;5034492;28;20522;-53
2022/04/24 05:57:38;;;;;;;15.43;4.78;;;;;;;7.04;73.76;99476.81;5033284;28;20451;-45
2022/04/24 06:00:07;;;;;;;16.17;4.85;;;;;;;7.08;74.32;99477.69;5029582;28;20109;-42
2022/04/24 06:02:34;;;;;;;12.35;4.55;;;;;;;7.15;74.59;99483.69;5054850;28;20093;-51
2022/04/24 06:05:01;;;;;;;22.67;5.03;;;;;;;7.22;74.27;99474.28;5049834;28;20040;-52
2022/04/24 06:07:27;;;;;;;14.65;4.13;;;;;;;7.25;74.10;99485.44;5061612;28;20694;-46
2022/04/24 06:09:54;;;;;;;13.05;4.30;;;;;;;7.28;74.36;99490.63;5050047;28;20052;-44
2022/04/24 06:12:21;;;;;;;13.73;3.17;;;;;;;7.32;74.76;99491.47;5049774;28;20459;-48
2022/04/24 06:14:47;;;;;;;17.05;4.15;;;;;;;7.36;73.71;99495.75;5058126;28;20049;-45
2022/04/24 06:17:14;;;;;;;8.20;3.88;;;;;;;7.42;73.82;99495.78;5051159;28;20094;-46
2022/04/24 06:19:40;;;;;;;14.13;5.13;;;;;;;7.50;73.04;99489.78;5051176;28;20132;-44
2022/04/24 06:22:07;;;;;;;6.97;2.45;;;;;;;7.54;74.26;99509.53;5048361;28;20435;-48
2022/04/24 06:24:33;;;;;;;8.13;4.60;;;;;;;7.57;73.19;99506.97;5049047;28;20098;-48
2022/04/24 06:27:00;;;;;;;17.60;5.03;;;;;;;7.66;72.99;99506.97;5053216;28;20068;-49
2022/04/24 06:29:27;;;;;;;12.48;3.80;;;;;;;7.76;73.51;99514.69;5053691;28;20063;-46
2022/04/24 06:31:54;;;;;;;16.20;3.90;;;;;;;7.86;73.40;99526.72;5052532;28;20133;-44
2022/04/24 06:34:20;;;;;;;10.93;3.95;;;;;;;7.94;73.33;99527.59;5043689;28;20045;-45
2022/04/24 06:36:47;;;;;;;12.18;4.43;;;;;;;8.06;72.18;99525.84;5052495;28;20052;-40
2022/04/24 06:39:13;;;;;;;8.23;3.78;;;;;;;8.17;73.44;99534.44;5056412;28;20053;-49
2022/04/24 06:41:40;;;;;;;16.85;5.38;;;;;;;8.27;72.44;99537.03;5052645;28;20115;-44
2022/04/24 06:44:12;;;;;;;14.48;4.85;;;;;;;8.47;71.65;99542.13;5057257;28;20121;-49
2022/04/24 06:46:39;;;;;;;20.25;4.65;;;;;;;8.58;71.87;99543.00;5048770;28;20060;-49
2022/04/24 06:49:05;;;;;;;11.20;4.45;;;;;;;8.68;71.30;99546.41;5054662;28;20132;-49
2022/04/24 06:51:32;;;;;;;15.82;4.30;;;;;;;8.77;71.41;99545.53;5057160;28;20045;-45
2022/04/24 06:53:58;;;;;;;9.38;4.72;;;;;;;8.89;70.95;99543.78;5052706;28;20476;-47
2022/04/24 06:56:25;;;;;;;10.43;4.35;;;;;;;9.00;70.20;99550.63;5048608;28;20075;-43
2022/04/24 06:58:52;;;;;;;19.90;5.80;;;;;;;9.04;70.22;99548.88;5052613;28;20102;-43
2022/04/24 07:01:21;;;;;;;10.68;4.82;;;;;;;9.29;69.79;99553.06;5052023;28;20053;-44
2022/04/24 07:03:48;;;;;;;10.55;4.85;;;;;;;9.68;69.31;99556.25;5035698;28;20056;-51
2022/04/24 07:06:20;;;;;;;15.82;4.60;;;;;;;9.86;68.56;99546.66;5053435;28;20049;-46
2022/04/24 07:08:46;;;;;;;22.65;5.07;;;;;;;10.00;68.75;99555.16;5046944;28;20107;-47
2022/04/24 07:11:13;;;;;;;11.18;5.05;;;;;;;10.22;67.94;99557.56;5053593;28;20520;-47
2022/04/24 07:13:41;;;;;;;13.18;4.75;;;;;;;10.37;67.05;99555.72;5053959;28;20136;-49
2022/04/24 07:16:07;;;;;;;13.38;4.10;;;;;;;10.62;67.48;99565.84;5056344;28;20049;-50
2022/04/24 07:18:35;;;;;;;12.15;4.88;;;;;;;10.69;66.32;99567.50;5047810;28;20053;-41
2022/04/24 07:21:02;;;;;;;15.23;4.65;;;;;;;10.69;65.85;99564.91;5056728;28;20049;-52
2022/04/24 07:23:29;;;;;;;15.43;5.40;;;;;;;10.78;65.66;99572.56;5043928;28;20443;-44
2022/04/24 07:25:56;;;;;;;10.90;4.57;;;;;;;10.86;65.98;99575.06;5048983;28;20052;-49
2022/04/24 07:28:23;;;;;;;11.27;4.25;;;;;;;11.09;65.02;99581.72;5053020;28;20049;-49
2022/04/24 07:30:49;;;;;;;14.63;4.57;;;;;;;11.31;64.75;99565.88;5051940;28;20060;-49
2022/04/24 07:33:16;;;;;;;14.50;4.25;;;;;;;11.22;63.82;99572.06;5046107;28;20140;-57
2022/04/24 07:35:42;;;;;;;11.13;2.63;;;;;;;11.59;63.53;99581.06;5043287;28;20856;-43
2022/04/24 07:38:10;;;;;;;11.73;4.97;;;;;;;11.85;63.11;99576.34;5046232;28;20041;-47
2022/04/24 07:40:39;;;;;;;12.90;4.65;;;;;;;11.80;62.66;99574.69;5050412;28;20497;-50
2022/04/24 07:43:08;;;;;;;12.65;4.82;;;;;;;11.94;61.79;99581.38;5060415;28;20052;-53
2022/04/24 07:45:38;;;;;;;11.13;3.92;;;;;;;11.98;60.48;99583.06;5049145;28;20148;-46
2022/04/24 07:48:07;;;;;;;10.57;5.00;;;;;;;12.30;61.38;99594.66;5030035;28;20121;-49
2022/04/24 07:50:36;;;;;;;10.88;4.15;;;;;;;12.75;60.79;99585.22;5044913;28;20734;-52
2022/04/24 07:53:04;;;;;;;14.98;5.00;;;;;;;13.13;59.56;99595.72;5039731;28;20056;-46
2022/04/24 07:55:30;;;;;;;10.27;4.78;;;;;;;13.34;58.74;99586.63;5024473;28;20103;-53
2022/04/24 07:57:58;;;;;;;9.40;4.50;;;;;;;13.52;57.41;99589.75;5042208;28;20064;-50
2022/04/24 08:00:27;;;;;;;14.05;4.72;;;;;;;13.72;56.91;99588.44;5027021;28;20044;-47
2022/04/24 08:05:34;;;;;;;9.82;3.20;;;;;;;14.32;55.35;99587.88;5069102;27;20128;-47
2022/04/24 08:08:04;;;;;;;11.77;3.63;;;;;;;14.45;55.39;99589.25;5070310;28;20117;-57
2022/04/24 08:10:32;;;;;;;12.77;2.75;;;;;;;14.71;54.74;99589.44;5063524;28;20454;-43
2022/04/24 08:13:00;;;;;;;9.18;2.70;;;;;;;14.93;53.01;99596.72;5061847;28;20045;-48
2022/04/24 08:15:27;;;;;;;10.80;3.83;;;;;;;15.06;52.46;99590.25;5063403;28;20041;-53
2022/04/24 08:17:53;;;;;;;13.45;3.67;;;;;;;15.27;53.13;99587.94;5059667;28;20094;-48
2022/04/24 08:20:20;;;;;;;10.63;3.00;;;;;;;15.56;52.38;99596.63;5060469;28;20118;-55
2022/04/24 08:22:49;;;;;;;11.27;4.30;;;;;;;15.83;51.57;99601.88;5056105;28;20485;-42
2022/04/24 08:25:20;;;;;;;10.10;2.83;;;;;;;15.90;50.51;99587.72;5056047;28;20072;-53
2022/04/24 08:27:47;;;;;;;9.35;2.88;;;;;;;16.00;50.22;99587.44;5053279;28;20073;-45
2022/04/24 08:30:15;;;;;;;9.90;3.00;;;;;;;16.06;49.51;99584.66;5053936;28;20040;-42
2022/04/24 08:32:42;;;;;;;6.00;2.67;;;;;;;15.96;48.37;99593.69;5060972;28;20466;-46
2022/04/24 08:35:11;;;;;;;9.00;3.15;;;;;;;15.96;48.10;99596.28;5060500;28;20131;-44
2022/04/24 08:37:38;;;;;;;9.98;3.05;;;;;;;15.81;48.19;99604.53;5059902;28;20107;-47
2022/04/24 08:40:07;;;;;;;10.98;2.75;;;;;;;15.93;48.90;99587.63;5061551;28;20045;-45
2022/04/24 08:42:34;;;;;;;9.00;2.78;;;;;;;16.29;49.94;99598.72;5061747;28;20098;-53
2022/04/24 08:45:02;;;;;;;7.40;2.90;;;;;;;16.67;48.51;99604.38;5065664;28;20049;-47
2022/04/24 08:47:29;;;;;;;7.53;2.88;;;;;;;16.82;48.55;99604.75;5063571;28;20484;-48
2022/04/24 08:49:57;;;;;;;11.43;2.95;;;;;;;16.99;48.80;99609.34;5064264;28;20049;-50
2022/04/24 08:52:27;;;;;;;11.80;3.17;;;;;;;17.13;46.64;99611.50;5061292;28;20114;-55
2022/04/24 08:54:55;;;;;;;8.85;3.08;;;;;;;17.19;46.81;99611.25;5063555;28;20079;-52
2022/04/24 08:57:26;;;;;;;10.93;3.53;;;;;;;17.27;44.74;99605.75;5065347;28;20509;-48
2022/04/24 08:59:54;;;;;;;9.82;3.17;;;;;;;17.15;44.53;99604.44;5064350;28;20040;-55
2022/04/24 09:02:41;;;;;;;9.45;2.90;;;;;;;17.20;44.92;99610.34;5061075;28;20464;-47
2022/04/24 09:05:08;;;;;;;8.75;2.80;;;;;;;17.42;45.74;99611.28;5062065;28;20041;-50
2022/04/24 09:07:36;;;;;;;9.80;2.60;;;;;;;17.65;44.38;99602.56;5063530;28;20067;-48
2022/04/24 09:10:09;;;;;;;8.80;3.17;;;;;;;17.60;44.63;99609.75;5065197;28;20110;-54
2022/04/24 09:12:35;;;;;;;8.30;3.13;;;;;;;17.53;44.56;99616.13;5078411;28;20049;-48
2022/04/24 09:15:02;;;;;;;8.07;2.97;;;;;;;17.55;44.40;99601.19;5061930;28;20045;-50
2022/04/24 09:17:32;;;;;;;8.73;3.45;;;;;;;17.76;44.83;99615.22;5050288;28;20493;-51
2022/04/24 09:20:00;;;;;;;7.95;3.20;;;;;;;17.87;42.92;99612.19;5032542;28;20044;-44
2022/04/24 09:22:27;;;;;;;15.02;2.97;;;;;;;18.07;44.04;99613.16;5047743;28;20103;-45
2022/04/24 09:27:32;;;;;;;11.43;4.25;;;;;;;18.08;41.09;99605.22;5100936;27;20409;-44
2022/04/24 09:35:29;;;;;;;8.38;3.00;;;;;;;18.45;40.93;99605.47;5055483;27;20135;-49
2022/04/24 09:38:13;;;;;;;11.40;3.60;;;;;;;18.57;42.02;99616.31;5057598;28;20063;-46
2022/04/24 09:40:44;;;;;;;9.15;3.60;;;;;;;18.45;41.34;99613.34;5066240;28;20048;-47
2022/04/24 09:43:12;;;;;;;10.07;3.97;;;;;;;18.54;41.03;99621.72;5064782;28;20114;-54
2022/04/24 09:45:40;;;;;;;7.53;3.28;;;;;;;18.47;40.30;99614.13;5048662;28;20439;-47
2022/04/24 09:48:19;;;;;;;10.55;3.60;;;;;;;18.49;40.38;99617.53;5064196;28;20548;-54
2022/04/24 09:50:48;;;;;;;8.60;3.42;;;;;;;18.40;40.69;99617.91;5048188;28;20057;-49
2022/04/24 09:53:19;;;;;;;5.78;3.30;;;;;;;18.36;40.96;99629.44;5028738;28;20095;-47
2022/04/24 09:55:47;;;;;;;6.60;3.28;;;;;;;18.33;41.27;99624.31;5044868;28;20124;-53
2022/04/24 09:58:14;;;;;;;6.13;2.90;;;;;;;18.53;40.23;99630.50;5045177;28;20068;-49
2022/04/24 10:00:41;;;;;;;6.65;2.83;;;;;;;18.42;40.78;99626.56;5045952;28;20095;-50
2022/04/24 10:03:09;;;;;;;8.13;3.78;;;;;;;18.57;41.41;99621.56;5045610;28;20103;-52
2022/04/24 10:05:38;;;;;;;6.40;2.78;;;;;;;18.59;39.89;99623.25;5045568;28;20055;-46
2022/04/24 10:08:06;;;;;;;8.05;3.08;;;;;;;18.66;40.08;99621.19;5043966;28;20076;-50
2022/04/24 10:10:32;;;;;;;8.00;3.22;;;;;;;18.69;40.84;99620.19;5041281;28;20257;-49
2022/04/24 10:13:01;;;;;;;6.20;2.83;;;;;;;18.74;40.57;99621.72;5041280;28;20049;-51
2022/04/24 10:15:30;;;;;;;8.05;2.80;;;;;;;18.79;40.83;99633.78;5044382;28;20111;-45
2022/04/24 10:18:36;;;;;;;7.85;3.65;;;;;;;18.86;39.42;99637.84;5045394;28;20107;-51
2022/04/24 10:24:13;;;;;;;8.32;4.13;;;;;;;18.45;40.25;99631.69;5091540;27;20554;-46
2022/04/24 10:26:51;;;;;;;7.50;4.53;;;;;;;18.32;40.72;99638.34;5080986;28;20443;-44
2022/04/24 10:29:18;;;;;;;7.88;3.22;;;;;;;18.56;41.13;99644.34;5068585;28;20089;-52
2022/04/24 10:32:03;;;;;;;5.85;3.17;;;;;;;18.79;39.99;99637.25;5108997;28;20054;-47
2022/04/24 10:34:39;;;;;;;7.47;3.50;;;;;;;18.88;39.82;99643.88;5120790;28;20126;-54
2022/04/24 10:37:06;;;;;;;7.65;3.80;;;;;;;19.02;40.49;99645.88;5117732;28;20075;-45
2022/04/24 10:39:33;;;;;;;6.93;3.35;;;;;;;18.98;39.45;99642.53;5121970;28;20043;-45
2022/04/24 10:42:12;;;;;;;7.47;3.28;;;;;;;18.71;38.53;99640.19;5121585;28;20525;-51
2022/04/24 10:44:55;;;;;;;8.25;3.85;;;;;;;18.69;40.09;99636.81;5099395;28;20052;-43
2022/04/24 10:47:21;;;;;;;;;;;;;;;18.88;40.43;99646.50;5109485;28;20047;-47
2022/04/24 10:49:48;;;;;;;6.18;3.42;;;;;;;19.19;39.90;99642.53;5110651;28;19927;-48
2022/04/24 10:52:15;;;;;;;7.35;3.50;;;;;;;19.44;40.17;99646.66;5109891;28;20074;-49
2022/04/24 10:54:43;;;;;;;10.57;4.32;;;;;;;19.42;39.42;99630.09;5113953;28;20435;-56
2022/04/24 10:57:16;;;;;;;8.43;3.95;;;;;;;19.41;39.51;99638.91;5112354;28;20043;-51
2022/04/24 10:59:48;;;;;;;6.63;3.47;;;;;;;19.68;40.30;99635.91;5101268;28;20096;-52
2022/04/24 11:02:21;;;;;;;8.00;3.70;;;;;;;19.63;38.31;99638.75;5099458;28;20076;-51
2022/04/24 11:04:58;;;;;;;9.43;3.65;;;;;;;19.45;37.81;99640.47;5116342;28;20135;-46
2022/04/24 11:07:24;;;;;;;6.88;3.85;;;;;;;19.31;38.37;99649.00;5102445;28;20476;-51
2022/04/24 11:10:06;;;;;;;6.97;3.47;;;;;;;19.14;38.11;99642.75;5118179;27;20048;-49
2022/04/24 11:12:35;;;;;;;8.32;3.70;;;;;;;18.96;38.95;99648.78;5090626;28;20035;-48
2022/04/24 11:15:08;;;;;;;7.38;3.00;;;;;;;18.95;37.97;99647.91;5107935;28;20051;-46
2022/04/24 11:17:36;;;;;;;7.85;3.13;;;;;;;19.01;39.15;99639.78;5113331;27;20040;-55
2022/04/24 11:20:09;;;;;;;6.03;3.38;;;;;;;19.22;38.68;99641.53;5096988;28;20082;-52
2022/04/24 11:22:53;;;;;;;6.13;3.30;;;;;;;19.31;39.36;99633.25;5118704;28;20047;-45
2022/04/24 11:25:24;;;;;;;12.07;4.28;;;;;;;19.49;39.28;99636.78;5116479;28;20063;-56
2022/04/24 11:27:54;;;;;;;7.22;3.53;;;;;;;19.57;38.71;99639.06;5096988;28;20727;-48
2022/04/24 11:30:23;;;;;;;8.57;3.28;;;;;;;19.61;37.98;99650.25;5119411;28;20048;-47
2022/04/24 11:33:07;;;;;;;6.45;3.75;;;;;;;19.47;37.67;99649.16;5095371;28;20436;-52
2022/04/24 11:35:36;;;;;;;6.25;2.97;;;;;;;19.49;38.86;99647.28;5102254;28;20079;-56
2022/04/24 11:38:04;;;;;;;;;;;;;;;19.25;37.85;99644.88;5078035;28;20043;-44
2022/04/24 11:40:33;;;;;;;5.63;3.10;;;;;;;18.99;38.01;99638.97;5101443;28;19928;-47
2022/04/24 11:43:18;;;;;;;8.52;3.28;;;;;;;18.97;39.00;99646.09;5066989;28;20117;-46
2022/04/24 11:51:32;;;;;;;7.45;3.40;;;;;;;19.08;38.26;99658.75;5066033;28;20079;-44
2022/04/24 11:54:04;;;;;;;4.85;3.38;;;;;;;19.02;38.46;99659.84;5088937;28;20032;-49
2022/04/24 11:56:32;;;;;;;8.13;3.42;;;;;;;18.93;38.25;99655.00;5101594;28;20056;-49
2022/04/24 11:59:17;;;;;;;9.43;3.22;;;;;;;18.80;38.29;99653.81;5098823;28;20131;-46
2022/04/24 12:01:45;;;;;;;7.93;3.55;;;;;;;18.82;38.00;99654.63;5095311;28;20040;-47